Latest Weather Observations for Walgett

IDN60801

Issued at 2:52 pm EDT Sunday 20 October 2019 (issued every 10 minutes, with the page automatically refreshed every 10 minutes)

About weather observations | Map of weather stations | Latest weather observations for NSW | Other Formats
Station Details ID: 052088 Name: WALGETT AIRPORT AWS Lat: -30.04 Lon: 148.12 Height: 133.0 m
Data from the previous 72 hours. | See also: Recent months at Walgett
Date/Time
EDT
Temp
°C
App
Temp
°C
Dew
Point
°C
Rel
Hum
%
Delta-T
°C
Wind Press
QNH
hPa
Press
MSL
hPa
Rain since
9am
mm
Dir  Spd
km/h
Gust
km/h
Spd
kts
Gust
kts
20/02:35pm 24.3 16.4 -4.9 14 12.2 S 28 50 15 27 1020.7 1020.3 0.0
20/02:30pm 23.6 15.7 -4.5 15 11.8 SSW 28 41 15 22 1020.7 1020.3 0.0
20/02:00pm 22.9 15.1 -4.2 16 11.3 SSW 28 46 15 25 1020.9 1020.5 0.0
20/01:30pm 23.3 15.1 -3.9 16 11.5 S 30 48 16 26 1021.3 1020.9 0.0
20/01:05pm 22.4 14.1 -4.6 16 11.2 S 30 48 16 26 1021.3 1020.9 0.0
20/01:00pm 23.6 15.5 -2.8 17 11.4 S 30 43 16 23 1021.5 1021.1 0.0
20/12:33pm 21.4 13.6 -3.9 18 10.5 S 28 46 15 25 1021.8 1021.4 0.0
20/12:30pm 21.8 13.3 -3.5 18 10.7 S 32 46 17 25 1022.0 1021.6 0.0
20/12:00pm 21.9 13.4 -3.5 18 10.7 S 32 48 17 26 1022.2 1021.8 0.0
20/11:52am 21.9 14.1 -3.5 18 10.7 S 28 48 15 26 1022.2 1021.8 0.0
20/11:30am 20.9 12.8 -2.9 20 10.1 S 30 43 16 23 1022.4 1022.0 0.0
20/11:00am 20.4 11.8 -2.6 21 9.7 S 33 46 18 25 1022.6 1022.2 0.0
20/10:30am 19.8 11.7 -3.1 21 9.5 S 30 46 16 25 1022.7 1022.3 0.0
20/10:29am 20.0 12.4 -2.3 22 9.5 S 28 46 15 25 1022.8 1022.4 0.0
20/10:00am 19.3 10.9 -1.2 25 8.8 S 33 44 18 24 1022.9 1022.5 0.0
20/09:30am 18.6 9.7 -1.8 25 8.6 S 35 50 19 27 1022.9 1022.5 0.0
20/09:00am 17.6 9.1 -1.6 27 8.0 SSE 33 46 18 25 1022.8 1022.4 0.0
20/08:30am 16.4 8.2 -0.8 31 7.3 S 32 39 17 21 1022.5 1022.1 0.0
20/08:00am 15.1 8.4 -1.0 33 6.7 S 24 33 13 18 1022.3 1021.9 0.0
20/07:30am 13.8 7.4 -1.4 35 6.2 SSW 22 30 12 16 1022.2 1021.8 0.0
20/07:00am 12.1 6.6 -1.8 38 5.5 SSW 17 22 9 12 1021.8 1021.4 0.0
20/06:30am 10.8 6.0 -2.6 39 5.1 SW 13 19 7 10 1021.3 1020.9 0.0
20/06:00am 11.7 6.6 -2.1 38 5.4 SSW 15 19 8 10 1020.9 1020.5 0.0
20/05:30am 12.3 6.8 -2.0 37 5.7 SSW 17 20 9 11 1020.6 1020.2 0.0
20/05:00am 12.3 6.8 -2.0 37 5.6 SSW 17 20 9 11 1020.4 1020.0 0.0
20/04:30am 12.4 6.8 -2.6 35 5.9 SSW 17 20 9 11 1020.2 1019.8 0.0
20/04:00am 13.5 7.4 -2.0 34 6.2 S 20 35 11 19 1020.0 1019.6 0.0
20/03:30am 14.6 8.7 -1.1 34 6.5 S 20 28 11 15 1020.0 1019.6 0.0
20/03:00am 15.7 9.1 -0.5 33 6.8 S 24 28 13 15 1019.8 1019.4 0.0
20/02:30am 15.9 9.3 -0.3 33 6.9 S 24 28 13 15 1019.7 1019.3 0.0
20/02:00am 16.9 9.6 0.1 32 7.3 S 28 32 15 17 1019.5 1019.1 0.0
20/01:30am 17.7 10.8 0.4 31 7.6 S 26 33 14 18 1019.6 1019.2 0.0
20/01:00am 18.5 10.6 1.1 31 7.8 S 32 41 17 22 1019.5 1019.1 0.0
20/12:30am 19.4 11.4 1.4 30 8.2 S 33 43 18 23 1019.5 1019.1 0.0
20/12:00am 20.1 11.4 2.0 30 8.4 S 37 46 20 25 1019.0 1018.6 0.0
 
Date/Time
EDT
Temp
°C
App
Temp
°C
Dew
Point
°C
Rel
Hum
%
Delta-T
°C
Wind Press
QNH
hPa
Press
MSL
hPa
Rain since
9am
mm
Dir  Spd
km/h
Gust
km/h
Spd
kts
Gust
kts
19/11:39pm 20.7 11.7 2.5 30 8.6 S 39 48 21 26 1018.7 1018.3 0.0
19/11:30pm 20.9 11.9 2.2 29 8.7 S 39 52 21 28 1018.7 1018.3 0.0
19/11:28pm 20.9 11.9 2.2 29 8.7 S 39 52 21 28 1018.7 1018.3 0.0
19/11:00pm 21.9 12.5 2.6 28 9.1 S 41 52 22 28 1018.4 1018.0 0.0
19/10:50pm 22.3 13.3 2.4 27 9.4 S 39 52 21 28 1018.2 1017.7 0.0
19/10:48pm 22.3 13.7 2.4 27 9.4 S 37 52 20 28 1018.1 1017.6 0.0
19/10:30pm 22.7 15.6 -4.4 16 11.3 SSW 24 39 13 21 1017.9 1017.4 0.0
19/10:00pm 23.3 17.0 -5.7 14 11.9 SW 19 24 10 13 1017.1 1016.7 0.0
19/09:30pm 23.7 17.4 -6.3 13 12.2 SW 19 24 10 13 1016.7 1016.3 0.0
19/09:00pm 23.5 17.7 -8.6 11 12.4 SW 15 20 8 11 1016.3 1015.9 0.0
19/08:30pm 22.9 16.9 -11.6 9 12.6 WSW 15 17 8 9 1015.7 1015.3 0.0
19/08:00pm 24.8 18.8 -11.7 8 13.5 WSW 15 19 8 10 1015.3 1014.9 0.0
19/07:30pm 26.6 19.9 -10.3 8 14.3 WSW 19 24 10 13 1014.8 1014.4 0.0
19/07:00pm 27.7 20.8 -11.2 7 15.0 WSW 20 30 11 16 1014.5 1014.1 0.0
19/06:30pm 29.0 21.8 -10.2 7 15.6 WSW 22 32 12 17 1014.2 1013.8 0.0
19/06:00pm 29.4 21.4 -9.9 7 15.8 WSW 26 37 14 20 1014.1 1013.7 0.0
19/05:30pm 30.0 21.5 -11.4 6 16.3 W 28 43 15 23 1014.1 1013.7 0.0
19/05:00pm 30.1 21.2 -11.4 6 16.4 W 30 43 16 23 1014.1 1013.7 0.0
19/04:47pm 29.9 21.4 -11.5 6 16.3 WSW 28 46 15 25 1014.2 1013.8 0.0
19/04:30pm 30.4 21.6 -11.2 6 16.5 W 30 44 16 24 1014.0 1013.6 0.0
19/04:00pm 30.1 22.0 -11.4 6 16.4 W 26 39 14 21 1014.3 1013.9 0.0
19/03:32pm 30.2 21.7 -11.3 6 16.4 W 28 46 15 25 1014.7 1014.3 0.0
19/03:30pm 30.0 21.9 -11.4 6 16.3 W 26 37 14 20 1014.7 1014.3 0.0
19/03:00pm 30.1 23.1 -11.4 6 16.4 WSW 20 33 11 18 1015.3 1014.9 0.0
19/02:30pm 29.2 21.6 -10.1 7 15.7 WSW 24 37 13 20 1015.9 1015.5 0.0
19/02:18pm 29.4 20.9 -11.9 6 16.0 WSW 28 44 15 24 1016.0 1015.6 0.0
19/02:00pm 29.1 22.2 -10.2 7 15.7 WSW 20 33 11 18 1016.3 1015.9 0.0
19/01:30pm 29.0 22.3 -10.2 7 15.6 SW 19 33 10 18 1016.7 1016.3 0.0
19/01:00pm 29.2 22.3 -10.1 7 15.7 SW 20 37 11 20 1017.0 1016.6 0.0
19/12:30pm 27.7 20.8 -11.2 7 15.0 W 20 33 11 18 1017.4 1016.9 0.0
19/12:00pm 28.1 21.8 -10.9 7 15.2 WSW 17 32 9 17 1017.8 1017.3 0.0
19/11:30am 27.1 21.2 -9.9 8 14.5 W 15 22 8 12 1018.0 1017.5 0.0
19/11:00am 26.4 20.8 -10.5 8 14.2 WSW 13 22 7 12 1018.4 1018.0 0.0
19/10:30am 25.4 20.7 -9.7 9 13.6 WNW 9 15 5 8 1018.8 1018.4 0.0
19/10:00am 23.9 19.2 -9.5 10 12.8 NNW 9 15 5 8 1018.8 1018.4 0.0
19/09:30am 21.7 16.6 -8.9 12 11.6 N 11 13 6 7 1018.7 1018.3 0.0
19/09:00am 19.6 15.1 -6.9 16 10.2 N 9 11 5 6 1018.7 1018.3 0.0
19/08:30am 16.8 12.7 -6.9 19 8.9 N 7 9 4 5 1018.7 1018.3 0.0
19/08:00am 14.3 9.7 -7.7 21 7.8 NE 9 13 5 7 1018.4 1018.0 0.0
19/07:30am 11.7 7.6 -7.1 26 6.6 NW 7 7 4 4 1018.0 1017.5 0.0
19/07:00am 7.5 3.8 -8.5 31 5.1 WNW 4 6 2 3 1017.8 1017.3 0.0
19/06:30am 6.6 2.7 -7.0 37 4.5 WNW 6 7 3 4 1017.4 1016.9 0.0
19/06:00am 6.9 2.9 -7.1 36 4.6 WNW 6 6 3 3 1017.0 1016.6 0.0
19/05:30am 7.0 3.0 -7.8 34 4.8 WNW 6 7 3 4 1016.6 1016.2 0.0
19/05:00am 7.1 2.9 -7.7 34 4.8 NW 7 9 4 5 1016.6 1016.2 0.0
19/04:30am 6.5 3.5 -9.8 30 5.0 CALM 0 6 0 3 1016.4 1016.0 0.0
19/04:00am 6.8 2.7 -8.3 33 4.8 NW 6 7 3 4 1016.5 1016.1 0.0
19/03:30am 6.7 3.4 -13.5 22 5.6 CALM 0 0 0 0 1016.4 1016.0 0.0
19/03:00am 7.6 2.8 -10.6 26 5.5 W 9 13 5 7 1016.6 1016.2 0.0
19/02:30am 8.2 4.5 -4.9 39 4.6 WNW 6 9 3 5 1016.9 1016.5 0.0
19/02:00am 9.8 6.8 -9.8 24 6.3 CALM 0 0 0 0 1016.9 1016.5 0.0
19/01:30am 10.0 7.0 -9.6 24 6.3 CALM 0 0 0 0 1016.8 1016.4 0.0
19/01:00am 8.9 5.7 -11.6 22 6.2 CALM 0 0 0 0 1017.0 1016.6 0.0
19/12:30am 11.3 8.4 -8.5 24 6.7 CALM 0 0 0 0 1017.1 1016.7 0.0
19/12:00am 10.8 7.7 -10.6 21 6.8 CALM 0 0 0 0 1017.1 1016.7 0.0
 
Date/Time
EDT
Temp
°C
App
Temp
°C
Dew
Point
°C
Rel
Hum
%
Delta-T
°C
Wind Press
QNH
hPa
Press
MSL
hPa
Rain since
9am
mm
Dir  Spd
km/h
Gust
km/h
Spd
kts
Gust
kts
18/11:30pm 12.8 9.8 -8.9 21 7.4 CALM 0 0 0 0 1017.3 1016.8 0.0
18/11:00pm 12.4 9.3 -10.5 19 7.5 CALM 0 0 0 0 1017.3 1016.8 0.0
18/10:30pm 13.0 9.8 -11.4 17 7.9 CALM 0 0 0 0 1017.4 1016.9 0.0
18/10:00pm 13.4 10.2 -12.7 15 8.2 CALM 0 6 0 3 1017.3 1016.8 0.0
18/09:30pm 16.0 12.8 -11.4 14 9.2 CALM 0 0 0 0 1017.1 1016.7 0.0
18/09:00pm 17.3 13.5 -10.4 14 9.7 SW 4 6 2 3 1017.0 1016.6 0.0
18/08:30pm 17.7 12.7 -14.3 10 10.4 SW 9 11 5 6 1017.0 1016.6 0.0
18/08:00pm 21.3 16.4 -11.5 10 11.7 SSW 9 11 5 6 1016.7 1016.3 0.0
18/07:30pm 22.8 18.3 -11.7 9 12.5 SW 7 11 4 6 1016.6 1016.2 0.0
18/07:00pm 24.7 19.4 -11.7 8 13.5 SW 11 15 6 8 1016.3 1015.9 0.0
18/06:30pm 25.6 20.0 -11.1 8 13.9 SSW 13 20 7 11 1016.0 1015.6 0.0
18/06:00pm 26.2 20.1 -12.3 7 14.3 WSW 15 20 8 11 1015.8 1015.4 0.0
18/05:30pm 26.5 20.2 -10.4 8 14.3 WSW 17 24 9 13 1015.9 1015.5 0.0
18/05:00pm 26.8 21.3 -10.2 8 14.4 SSW 13 20 7 11 1015.8 1015.4 0.0
18/04:30pm 27.1 21.8 -11.6 7 14.8 SW 11 20 6 11 1016.0 1015.6 0.0
18/04:00pm 26.6 20.7 -10.3 8 14.3 WSW 15 24 8 13 1016.1 1015.7 0.0
18/03:30pm 26.6 21.2 -8.8 9 14.1 SSW 13 20 7 11 1016.5 1016.1 0.0
18/03:00pm 25.4 20.7 -9.7 9 13.6 SSW 9 19 5 10 1017.3 1016.8 0.0
18/02:30pm 25.9 21.7 -8.0 10 13.6 NE 7 15 4 8 1017.6 1017.1 0.0
18/02:00pm 25.8 20.0 -8.1 10 13.6 W 15 32 8 17 1018.1 1017.6 0.0
18/01:30pm 24.5 18.7 -9.1 10 13.1 W 15 26 8 14 1018.6 1018.2 0.0
18/01:00pm 24.3 19.4 -6.9 12 12.6 ESE 11 26 6 14 1019.0 1018.6 0.0
18/12:30pm 23.1 18.3 -5.8 14 11.8 SSW 11 24 6 13 1019.5 1019.1 0.0
18/12:00pm 22.1 16.3 -8.6 12 11.7 SW 15 28 8 15 1020.0 1019.6 0.0
18/11:30am 22.1 17.0 -4.9 16 11.1 SSW 13 26 7 14 1020.3 1019.9 0.0
18/11:00am 21.8 16.0 -5.1 16 11.0 S 17 24 9 13 1020.5 1020.1 0.0
18/10:30am 20.2 14.4 -4.8 18 10.1 SSE 17 26 9 14 1020.6 1020.2 0.0
18/10:00am 19.4 14.3 -5.5 18 9.8 SE 13 26 7 14 1020.7 1020.3 0.0
18/09:30am 19.7 14.4 -3.9 20 9.7 ESE 15 24 8 13 1020.7 1020.3 0.0
18/09:00am 18.2 12.8 -4.5 21 9.0 ESE 15 19 8 10 1020.5 1020.1 0.0
18/08:30am 15.9 10.7 -5.8 22 8.2 ESE 13 19 7 10 1020.3 1019.9 0.0
18/08:00am 13.1 9.3 -5.9 26 6.9 SSE 6 9 3 5 1019.9 1019.5 0.0
18/07:30am 9.1 4.5 -8.0 29 5.7 S 9 11 5 6 1019.7 1019.3 0.0
18/07:00am 6.8 2.6 -8.3 33 4.8 SSE 7 9 4 5 1019.5 1019.1 0.0
18/06:30am 6.3 2.3 -7.6 36 4.5 SSE 6 7 3 4 1019.3 1018.9 0.0
18/06:00am 6.1 2.3 -9.3 32 4.7 SSE 4 6 2 3 1019.0 1018.6 0.0
18/05:30am 6.1 1.4 -9.3 32 4.7 S 9 11 5 6 1018.4 1018.0 0.0
18/05:00am 7.4 4.1 -7.8 33 4.9 S 2 9 1 5 1018.4 1018.0 0.0
18/04:30am 7.7 4.8 -8.3 31 5.2 CALM 0 0 0 0 1018.3 1017.8 0.0
18/04:00am 6.3 1.9 -10.4 29 5.0 S 7 9 4 5 1018.2 1017.7 0.0
18/03:30am 6.9 1.7 -10.8 27 5.3 S 11 13 6 7 1018.0 1017.5 0.0
18/03:00am 9.3 4.2 -9.2 26 6.0 S 11 11 6 6 1017.8 1017.3 0.0
18/02:30am 9.0 4.9 -9.4 26 5.9 SSE 6 9 3 5 1017.9 1017.4 0.0
18/02:00am 10.3 5.6 -8.8 25 6.3 SSE 9 9 5 5 1018.0 1017.5 0.0
18/01:30am 11.1 6.4 -9.2 23 6.7 SSE 9 13 5 7 1017.9 1017.4 0.0
18/01:00am 11.6 7.0 -8.3 24 6.7 SSE 9 11 5 6 1018.0 1017.5 0.0
18/12:30am 11.5 6.4 -8.9 23 6.8 SSE 11 13 6 7 1018.0 1017.5 0.0
18/12:00am 11.7 5.9 -8.7 23 6.9 S 15 15 8 8 1017.9 1017.4 0.0
 
Date/Time
EDT
Temp
°C
App
Temp
°C
Dew
Point
°C
Rel
Hum
%
Delta-T
°C
Wind Press
QNH
hPa
Press
MSL
hPa
Rain since
9am
mm
Dir  Spd
km/h
Gust
km/h
Spd
kts
Gust
kts
17/11:30pm 13.5 7.7 -8.4 21 7.6 S 15 15 8 8 1017.8 1017.3 0.0
17/11:00pm 15.4 8.9 -8.1 19 8.4 S 19 20 10 11 1017.6 1017.1 0.0
17/10:30pm 16.5 10.1 -7.2 19 8.8 S 19 20 10 11 1017.1 1016.7 0.0
17/10:00pm 16.8 10.3 -7.6 18 9.0 S 19 20 10 11 1016.8 1016.4 0.0
17/09:30pm 18.6 11.6 -7.7 16 9.9 S 22 26 12 14 1016.4 1016.0 0.0
17/09:00pm 20.4 11.9 -7.1 15 10.6 S 30 35 16 19 1015.9 1015.5 0.0
17/08:30pm 20.1 13.9 -4.9 18 10.1 S 19 20 10 11 1015.4 1015.0 0.0
17/08:00pm 22.7 15.5 -5.2 15 11.5 SSW 24 32 13 17 1014.7 1014.3 0.0
17/07:30pm 24.0 16.4 -5.1 14 12.1 SW 26 33 14 18 1014.2 1013.8 0.0
17/07:00pm 25.4 18.0 -4.0 14 12.7 SW 26 35 14 19 1013.6 1013.2 0.0
17/06:30pm 26.5 18.1 -6.3 11 13.7 SSW 30 39 16 21 1013.2 1012.8 0.0
17/06:00pm 27.2 19.2 -5.8 11 14.0 SW 28 39 15 21 1012.7 1012.3 0.0
17/05:30pm 28.2 19.8 -6.3 10 14.6 SW 30 39 16 21 1012.3 1011.9 0.0
17/05:10pm 28.4 20.1 -4.9 11 14.5 SW 30 50 16 27 1012.0 1011.6 0.0
17/05:00pm 28.5 20.7 -3.6 12 14.3 WSW 28 37 15 20 1011.9 1011.5 0.0
17/04:45pm 28.9 20.1 -5.7 10 14.9 SW 32 52 17 28 1011.8 1011.3 0.0
17/04:30pm 29.2 21.5 -3.1 12 14.6 SW 28 39 15 21 1011.7 1011.2 0.0
17/04:00pm 29.6 22.1 -1.7 13 14.6 SW 28 41 15 22 1011.7 1011.2 0.0
17/03:45pm 29.8 21.9 -1.5 13 14.6 SW 30 48 16 26 1011.6 1011.1 0.0
17/03:30pm 29.6 21.4 -0.7 14 14.3 WSW 32 48 17 26 1011.8 1011.3 0.0
17/03:06pm 29.3 21.5 1.7 17 13.6 WSW 32 52 17 28 1011.9 1011.5 0.0
17/03:00pm 29.3 21.6 2.5 18 13.4 WSW 32 44 17 24 1012.0 1011.6 0.0

Other formats

Comma delimited format used in spreadsheet applications
http://www.bom.gov.au/fwo/IDN60801/IDN60801.95715.axf

JavaScript Object Notation format (JSON) in row-major order
http://www.bom.gov.au/fwo/IDN60801/IDN60801.95715.json

Data quality

Most of these data are generated automatically and are frequently updated. Quality checks on data are not normally performed. It is possible for incorrect values to appear. Refer to information at About Latest Weather Observations and please check the disclaimer before using these data.